createdAt,value
2022-10-17T00:00:51.278Z,4.60
2022-10-17T00:03:18.890Z,3.70
2022-10-17T00:05:48.565Z,4.43
2022-10-17T00:08:19.196Z,6.27
2022-10-17T00:10:56.093Z,3.87
2022-10-17T00:13:23.654Z,4.37
2022-10-17T00:15:52.450Z,4.50
2022-10-17T00:18:20.319Z,5.97
2022-10-17T00:20:47.604Z,3.93
2022-10-17T00:23:14.856Z,4.83
2022-10-17T00:25:42.244Z,5.70
2022-10-17T00:28:10.582Z,3.93
2022-10-17T00:30:37.902Z,4.33
2022-10-17T00:33:07.213Z,2.47
2022-10-17T00:35:34.443Z,4.60
2022-10-17T00:38:01.711Z,4.10
2022-10-17T00:40:29.072Z,4.30
2022-10-17T00:42:56.319Z,2.70
2022-10-17T00:45:27.861Z,2.97
2022-10-17T00:48:00.971Z,2.50
2022-10-17T00:50:30.094Z,3.47
2022-10-17T00:53:02.788Z,2.30
2022-10-17T00:55:35.625Z,4.07
2022-10-17T00:58:05.610Z,1.93
2022-10-17T01:00:32.913Z,3.23
2022-10-17T01:03:00.581Z,2.23
2022-10-17T01:05:29.951Z,2.70
2022-10-17T01:07:57.685Z,4.43
2022-10-17T01:10:34.214Z,2.93
2022-10-17T01:13:14.116Z,5.20
2022-10-17T01:15:59.741Z,3.47
2022-10-17T01:18:47.290Z,4.50
2022-10-17T01:21:47.232Z,2.23
2022-10-17T01:24:47.186Z,2.67
2022-10-17T01:28:01.185Z,5.47
2022-10-17T01:31:15.785Z,2.47
2022-10-17T01:34:01.294Z,2.57
2022-10-17T01:36:44.387Z,3.20
2022-10-17T01:39:20.824Z,2.53
2022-10-17T01:41:58.290Z,3.87
2022-10-17T01:44:36.798Z,5.10
2022-10-17T01:47:10.096Z,4.03
2022-10-17T01:49:42.044Z,3.33
2022-10-17T01:52:15.330Z,6.20
2022-10-17T01:54:48.930Z,3.10
2022-10-17T01:57:24.600Z,5.03
2022-10-17T01:59:56.088Z,3.20
2022-10-17T02:02:26.778Z,5.87
2022-10-17T02:04:57.419Z,4.23
2022-10-17T02:07:25.044Z,3.70
2022-10-17T02:09:52.617Z,3.40
2022-10-17T02:12:45.765Z,2.37
2022-10-17T02:16:08.370Z,3.43
2022-10-17T02:19:01.480Z,3.73
2022-10-17T02:21:39.342Z,3.07
2022-10-17T02:24:17.836Z,5.27
2022-10-17T02:26:54.089Z,4.40
2022-10-17T02:29:28.918Z,3.33
2022-10-17T02:32:05.642Z,2.90
2022-10-17T02:34:41.483Z,3.60
2022-10-17T02:37:12.839Z,3.53
2022-10-17T02:39:42.993Z,3.00
2022-10-17T02:42:14.133Z,2.67
2022-10-17T02:44:45.880Z,2.63
2022-10-17T02:47:22.092Z,5.70
2022-10-17T02:49:55.220Z,2.30
2022-10-17T02:52:34.041Z,4.10
2022-10-17T02:55:12.106Z,5.63
2022-10-17T02:57:44.701Z,3.30
2022-10-17T03:00:15.604Z,2.67
2022-10-17T03:02:46.764Z,3.50
2022-10-17T03:05:22.051Z,2.30
2022-10-17T03:07:49.947Z,3.40
2022-10-17T03:10:18.362Z,3.40
2022-10-17T03:12:45.682Z,2.93
2022-10-17T03:15:14.126Z,6.27
2022-10-17T03:17:41.656Z,3.70
2022-10-17T03:20:09.814Z,3.40
2022-10-17T03:22:38.509Z,2.97
2022-10-17T03:25:06.376Z,3.27
2022-10-17T03:27:33.594Z,3.37
2022-10-17T03:30:00.804Z,5.50
2022-10-17T03:32:28.090Z,4.60
2022-10-17T03:34:55.298Z,3.80
2022-10-17T03:37:22.569Z,3.70
2022-10-17T03:39:51.395Z,4.90
2022-10-17T03:42:18.627Z,4.80
2022-10-17T03:44:45.983Z,3.17
2022-10-17T03:47:14.274Z,5.47
2022-10-17T03:49:41.786Z,4.80
2022-10-17T03:52:12.541Z,3.60
2022-10-17T03:54:39.815Z,5.63
2022-10-17T03:57:08.493Z,7.33
2022-10-17T03:59:35.749Z,3.90
2022-10-17T04:02:03.017Z,4.07
2022-10-17T04:04:30.218Z,4.57
2022-10-17T04:06:57.474Z,4.10
2022-10-17T04:09:24.714Z,4.17
2022-10-17T04:11:51.972Z,4.00
2022-10-17T04:14:20.672Z,4.10
2022-10-17T04:16:47.982Z,5.17
2022-10-17T04:19:15.301Z,5.30
2022-10-17T04:21:42.571Z,4.23
2022-10-17T04:24:12.324Z,4.73
2022-10-17T04:26:39.536Z,4.23
2022-10-17T04:29:06.809Z,3.93
2022-10-17T04:31:35.878Z,4.40
2022-10-17T04:34:03.162Z,5.77
2022-10-17T04:36:30.381Z,5.40
2022-10-17T04:38:57.575Z,7.13
2022-10-17T04:41:25.851Z,4.20
2022-10-17T04:43:53.076Z,4.40
2022-10-17T04:46:20.439Z,5.50
2022-10-17T04:48:49.194Z,6.27
2022-10-17T04:51:20.704Z,4.13
2022-10-17T04:53:50.548Z,4.57
2022-10-17T04:56:20.669Z,7.43
2022-10-17T04:58:48.601Z,4.73
2022-10-17T05:01:18.899Z,4.83
2022-10-17T05:03:48.297Z,5.83
2022-10-17T05:06:21.662Z,8.20
2022-10-17T05:08:49.739Z,5.10
2022-10-17T05:11:19.965Z,5.97
2022-10-17T05:13:51.734Z,5.00
2022-10-17T05:16:19.477Z,7.07
2022-10-17T05:18:52.925Z,4.57
2022-10-17T05:21:22.750Z,4.27
2022-10-17T05:23:50.537Z,5.07
2022-10-17T05:26:18.716Z,4.53
2022-10-17T05:28:46.119Z,4.60
2022-10-17T05:31:13.862Z,5.53
2022-10-17T05:33:43.071Z,4.73
2022-10-17T05:36:11.851Z,5.33
2022-10-17T05:38:39.139Z,9.47
2022-10-17T05:41:06.472Z,6.40
2022-10-17T05:43:34.679Z,5.17
2022-10-17T05:46:05.516Z,4.97
2022-10-17T05:48:33.944Z,5.60
2022-10-17T05:51:04.309Z,7.47
2022-10-17T05:53:35.593Z,5.07
2022-10-17T05:56:06.953Z,5.00
2022-10-17T05:58:53.180Z,6.23
2022-10-17T06:01:21.503Z,4.97
2022-10-17T06:03:48.925Z,6.77
2022-10-17T06:06:17.765Z,7.17
2022-10-17T06:08:46.576Z,7.07
2022-10-17T06:11:14.290Z,5.20
2022-10-17T06:13:42.322Z,4.70
2022-10-17T06:16:09.924Z,5.90
2022-10-17T06:18:37.234Z,8.20
2022-10-17T06:21:07.631Z,4.60
2022-10-17T06:23:34.933Z,5.10
2022-10-17T06:26:06.229Z,5.10
2022-10-17T06:28:34.303Z,4.23
2022-10-17T06:31:06.262Z,8.33
2022-10-17T06:33:33.726Z,4.90
2022-10-17T06:36:01.116Z,6.07
2022-10-17T06:38:28.474Z,4.73
2022-10-17T06:41:04.980Z,6.90
2022-10-17T06:43:32.222Z,4.90
2022-10-17T06:45:59.474Z,5.57
2022-10-17T06:48:26.708Z,4.40
2022-10-17T06:53:45.268Z,4.60
2022-10-17T06:56:14.319Z,6.87
2022-10-17T06:58:42.042Z,4.60
2022-10-17T07:01:12.277Z,5.27
2022-10-17T07:03:41.102Z,5.13
2022-10-17T07:06:10.767Z,6.73
2022-10-17T07:08:38.378Z,5.73
2022-10-17T07:11:16.227Z,4.70
2022-10-17T07:13:44.020Z,4.30
2022-10-17T07:16:12.742Z,4.90
2022-10-17T07:18:40.901Z,6.53
2022-10-17T07:21:09.945Z,4.20
2022-10-17T07:23:38.548Z,4.50
2022-10-17T07:26:10.848Z,5.60
2022-10-17T07:28:42.803Z,7.20
2022-10-17T07:31:14.831Z,5.23
2022-10-17T07:33:42.282Z,4.63
2022-10-17T07:36:10.193Z,4.87
2022-10-17T07:38:37.948Z,8.63
2022-10-17T07:41:08.396Z,4.30
2022-10-17T07:43:39.064Z,4.93
2022-10-17T07:46:08.460Z,4.60
2022-10-17T07:48:35.902Z,5.27
2022-10-17T07:51:04.408Z,4.23
2022-10-17T07:53:32.370Z,9.50
2022-10-17T07:55:59.664Z,5.00
2022-10-17T07:58:28.757Z,4.73
2022-10-17T08:01:00.230Z,4.40
2022-10-17T08:03:28.997Z,4.87
2022-10-17T08:05:58.865Z,6.80
2022-10-17T08:08:26.619Z,4.93
2022-10-17T08:10:55.031Z,5.43
2022-10-17T08:13:22.964Z,4.37
2022-10-17T08:15:50.212Z,6.87
2022-10-17T08:18:18.339Z,6.83
2022-10-17T08:20:48.786Z,4.73
2022-10-17T08:23:16.041Z,8.23
2022-10-17T08:25:43.288Z,4.33
2022-10-17T08:28:10.485Z,5.37
2022-10-17T08:30:37.863Z,4.90
2022-10-17T08:33:05.111Z,5.03
2022-10-17T08:35:32.620Z,6.53
2022-10-17T08:38:01.860Z,4.23
2022-10-17T08:40:33.798Z,5.07
2022-10-17T08:43:35.265Z,4.93
2022-10-17T08:46:08.021Z,7.30
2022-10-17T08:48:46.324Z,4.30
2022-10-17T08:51:19.563Z,4.43
2022-10-17T08:53:54.405Z,8.63
2022-10-17T08:56:44.057Z,4.80
2022-10-17T08:59:14.774Z,3.73
2022-10-17T09:01:50.353Z,9.30
2022-10-17T09:04:45.668Z,5.60
2022-10-17T09:07:22.440Z,9.73
2022-10-17T09:10:03.423Z,5.90
2022-10-17T09:12:43.867Z,10.77
2022-10-17T09:15:47.621Z,12.03
2022-10-17T09:18:23.718Z,8.77
2022-10-17T09:20:57.963Z,7.83
2022-10-17T09:23:31.265Z,8.40
2022-10-17T09:26:02.206Z,7.57
2022-10-17T09:28:34.888Z,6.23
2022-10-17T09:31:06.909Z,7.23
2022-10-17T09:33:53.729Z,7.77
2022-10-17T09:36:26.112Z,6.40
2022-10-17T09:38:56.462Z,6.27
2022-10-17T09:44:25.422Z,6.97
2022-10-17T09:47:08.622Z,7.37
2022-10-17T09:49:39.609Z,4.70
2022-10-17T09:52:18.224Z,5.90
2022-10-17T09:54:50.134Z,4.00
2022-10-17T09:57:21.706Z,4.60
2022-10-17T09:59:59.268Z,3.90
2022-10-17T10:02:29.577Z,5.60
2022-10-17T10:05:05.667Z,6.33
2022-10-17T10:07:37.716Z,5.83
2022-10-17T10:10:14.249Z,6.10
2022-10-17T10:13:03.260Z,7.03
2022-10-17T10:15:35.301Z,6.43
2022-10-17T10:18:03.806Z,5.43
2022-10-17T10:20:36.757Z,3.90
2022-10-17T10:23:17.728Z,5.97
2022-10-17T10:25:56.361Z,3.93
2022-10-17T10:28:29.691Z,4.50
2022-10-17T10:31:00.667Z,4.90
2022-10-17T10:33:30.764Z,3.70
2022-10-17T10:36:06.343Z,4.27
2022-10-17T10:38:35.281Z,5.73
2022-10-17T10:41:05.461Z,4.87
2022-10-17T10:43:40.627Z,4.80
2022-10-17T10:46:19.358Z,3.20
2022-10-17T10:48:58.586Z,3.53
2022-10-17T10:51:32.507Z,4.23
2022-10-17T10:54:06.594Z,5.40
2022-10-17T10:56:40.588Z,6.57
2022-10-17T10:59:19.297Z,7.07
2022-10-17T11:01:54.742Z,3.57
2022-10-17T11:04:32.539Z,4.40
2022-10-17T11:07:06.846Z,4.40
2022-10-17T11:09:49.373Z,4.33
2022-10-17T11:12:24.257Z,4.70
2022-10-17T11:15:17.067Z,9.37
2022-10-17T11:17:57.345Z,5.77
2022-10-17T11:20:34.875Z,3.77
2022-10-17T11:23:19.857Z,5.27
2022-10-17T11:25:51.041Z,5.93
2022-10-17T11:28:21.714Z,9.03
2022-10-17T11:30:58.041Z,4.87
2022-10-17T11:33:32.437Z,7.20
2022-10-17T11:36:06.101Z,5.20
2022-10-17T11:38:45.385Z,5.83
2022-10-17T11:41:27.345Z,7.60
2022-10-17T11:44:01.419Z,4.53
2022-10-17T11:46:35.924Z,5.90
2022-10-17T11:49:17.422Z,6.00
2022-10-17T11:52:01.601Z,5.57
2022-10-17T11:54:38.018Z,6.33
2022-10-17T11:57:32.758Z,5.97
2022-10-17T12:00:32.507Z,6.23
2022-10-17T12:03:26.589Z,6.57
2022-10-17T12:06:12.317Z,5.03
2022-10-17T12:08:49.749Z,5.30
2022-10-17T12:11:36.878Z,7.67
2022-10-17T12:14:35.814Z,8.80
2022-10-17T12:17:05.742Z,6.57
2022-10-17T12:19:37.463Z,7.93
2022-10-17T12:22:23.171Z,8.50
2022-10-17T12:24:59.046Z,9.33
2022-10-17T12:27:45.834Z,7.80
2022-10-17T12:30:24.521Z,7.73
2022-10-17T12:33:22.278Z,8.40
2022-10-17T12:36:13.456Z,9.60
2022-10-17T12:38:41.179Z,9.73
2022-10-17T12:41:08.459Z,8.60
2022-10-17T12:43:47.244Z,7.97
2022-10-17T12:46:50.956Z,8.43
2022-10-17T12:49:43.834Z,9.07
2022-10-17T12:52:58.610Z,7.27
2022-10-17T12:55:26.815Z,8.40
2022-10-17T12:58:00.156Z,10.23
2022-10-17T13:00:43.826Z,10.37
2022-10-17T13:03:22.131Z,8.47
2022-10-17T13:05:52.535Z,7.40
2022-10-17T13:08:26.377Z,7.47
2022-10-17T13:10:55.824Z,10.33
2022-10-17T13:13:35.273Z,7.30
2022-10-17T13:16:02.657Z,11.33
2022-10-17T13:18:30.689Z,8.40
2022-10-17T13:21:02.245Z,9.07
2022-10-17T13:23:34.957Z,7.47
2022-10-17T13:26:14.484Z,8.37
2022-10-17T13:28:42.614Z,9.13
2022-10-17T13:31:30.067Z,8.07
2022-10-17T13:34:01.969Z,7.83
2022-10-17T13:36:35.906Z,10.97
2022-10-17T13:39:16.854Z,8.60
2022-10-17T13:41:50.239Z,11.07
2022-10-17T13:44:24.460Z,10.50
2022-10-17T13:46:52.198Z,10.63
2022-10-17T13:49:25.941Z,9.83
2022-10-17T13:51:56.708Z,10.37
2022-10-17T13:54:36.230Z,9.30
2022-10-17T13:57:06.280Z,8.57
2022-10-17T13:59:39.950Z,10.87
2022-10-17T14:02:14.575Z,8.57
2022-10-17T14:05:11.781Z,8.63
2022-10-17T14:08:05.713Z,9.00
2022-10-17T14:10:33.883Z,8.87
2022-10-17T14:13:04.348Z,15.80
2022-10-17T14:15:35.293Z,9.40
2022-10-17T14:18:07.955Z,11.50
2022-10-17T14:23:36.604Z,10.10
2022-10-17T14:26:13.514Z,7.57
2022-10-17T14:28:43.357Z,11.83
2022-10-17T14:31:25.796Z,8.87
2022-10-17T14:33:54.705Z,7.50
2022-10-17T14:36:34.204Z,7.70
2022-10-17T14:39:03.475Z,8.30
2022-10-17T14:41:44.190Z,8.10
2022-10-17T14:44:21.678Z,7.80
2022-10-17T14:46:54.978Z,11.73
2022-10-17T14:49:34.697Z,8.60
2022-10-17T14:52:30.717Z,7.63
2022-10-17T14:55:00.403Z,9.73
2022-10-17T14:57:44.677Z,9.50
2022-10-17T15:00:15.967Z,9.87
2022-10-17T15:02:44.759Z,8.07
2022-10-17T15:05:13.414Z,8.70
2022-10-17T15:07:41.449Z,7.70
2022-10-17T15:10:33.760Z,7.03
2022-10-17T15:13:16.399Z,7.43
2022-10-17T15:15:52.413Z,6.73
2022-10-17T15:18:19.884Z,6.93
2022-10-17T15:20:49.570Z,6.47
2022-10-17T15:23:22.622Z,6.80
2022-10-17T15:25:50.019Z,7.73
2022-10-17T15:28:19.087Z,6.17
2022-10-17T15:30:46.688Z,6.83
2022-10-17T15:33:14.135Z,6.87
2022-10-17T15:35:42.657Z,6.67
2022-10-17T15:38:18.019Z,6.13
2022-10-17T15:40:48.839Z,6.17
2022-10-17T15:43:19.750Z,9.77
2022-10-17T15:45:48.885Z,6.40
2022-10-17T15:48:26.597Z,6.23
2022-10-17T15:50:53.972Z,6.60
2022-10-17T15:53:21.230Z,6.03
2022-10-17T15:55:50.952Z,7.33
2022-10-17T15:58:19.774Z,6.47
2022-10-17T16:00:48.986Z,6.03
2022-10-17T16:03:16.472Z,7.70
2022-10-17T16:05:43.855Z,6.77
2022-10-17T16:08:11.259Z,9.30
2022-10-17T16:10:41.074Z,6.43
2022-10-17T16:13:17.340Z,7.60
2022-10-17T16:15:44.716Z,7.10
2022-10-17T16:18:14.023Z,7.50
2022-10-17T16:20:41.643Z,9.50
2022-10-17T16:23:12.475Z,6.40
2022-10-17T16:25:40.794Z,8.63
2022-10-17T16:28:08.506Z,8.00
2022-10-17T16:30:42.867Z,7.50
2022-10-17T16:33:11.613Z,7.77
2022-10-17T16:35:40.510Z,7.60
2022-10-17T16:38:08.394Z,8.77
2022-10-17T16:40:40.272Z,8.03
2022-10-17T16:43:10.224Z,8.20
2022-10-17T16:45:37.647Z,7.63
2022-10-17T16:48:05.862Z,7.33
2022-10-17T16:50:35.580Z,9.07
2022-10-17T16:53:04.277Z,9.03
2022-10-17T16:55:31.562Z,8.57
2022-10-17T16:58:03.126Z,8.10
2022-10-17T17:00:31.572Z,8.80
2022-10-17T17:02:59.074Z,9.77
2022-10-17T17:05:26.604Z,8.33
2022-10-17T17:07:55.714Z,11.03
2022-10-17T17:10:24.680Z,9.10
2022-10-17T17:12:52.171Z,9.03
2022-10-17T17:15:19.757Z,8.47
2022-10-17T17:17:53.527Z,8.00
2022-10-17T17:20:22.801Z,11.27
2022-10-17T17:22:51.924Z,8.80
2022-10-17T17:25:19.381Z,9.33
2022-10-17T17:27:48.364Z,9.07
2022-10-17T17:30:16.268Z,9.83
2022-10-17T17:32:43.744Z,13.13
2022-10-17T17:35:11.348Z,10.40
2022-10-17T17:37:38.847Z,9.77
2022-10-17T17:40:08.014Z,8.30
2022-10-17T17:42:35.530Z,10.30
2022-10-17T17:45:05.843Z,7.20
2022-10-17T17:47:33.480Z,6.50
2022-10-17T17:50:02.450Z,5.17
2022-10-17T17:52:30.274Z,6.13
2022-10-17T17:54:57.992Z,5.17
2022-10-17T17:57:25.542Z,5.20
2022-10-17T17:59:53.224Z,4.33
2022-10-17T18:02:22.529Z,3.60
2022-10-17T18:04:50.040Z,3.30
2022-10-17T18:07:17.324Z,3.77
2022-10-17T18:09:44.567Z,3.50
2022-10-17T18:12:12.014Z,3.80
2022-10-17T18:14:39.349Z,3.20
2022-10-17T18:17:06.687Z,3.80
2022-10-17T18:19:35.746Z,5.60
2022-10-17T18:22:03.035Z,4.23
2022-10-17T18:24:30.269Z,4.60
2022-10-17T18:26:59.839Z,3.10
2022-10-17T18:29:27.517Z,4.63
2022-10-17T18:31:54.987Z,3.60
2022-10-17T18:34:22.301Z,3.63
2022-10-17T18:36:52.822Z,2.63
2022-10-17T18:39:20.534Z,2.77
2022-10-17T18:41:47.834Z,2.87
2022-10-17T18:44:15.979Z,3.43
2022-10-17T18:46:43.328Z,2.83
2022-10-17T18:49:13.218Z,3.20
2022-10-17T18:51:41.788Z,2.50
2022-10-17T18:54:14.877Z,2.80
2022-10-17T18:56:42.202Z,2.87
2022-10-17T18:59:09.809Z,3.30
2022-10-17T19:04:28.832Z,2.33
2022-10-17T19:06:56.134Z,4.17
2022-10-17T19:09:25.168Z,3.60
2022-10-17T19:11:52.607Z,3.23
2022-10-17T19:14:19.932Z,3.70
2022-10-17T19:16:51.621Z,5.07
2022-10-17T19:19:22.232Z,4.47
2022-10-17T19:21:50.597Z,3.40
2022-10-17T19:24:20.897Z,5.07
2022-10-17T19:26:55.822Z,4.60
2022-10-17T19:29:27.986Z,3.90
2022-10-17T19:34:23.822Z,5.97
2022-10-17T19:36:51.174Z,4.70
2022-10-17T19:39:22.726Z,3.90
2022-10-17T19:41:52.003Z,3.63
2022-10-17T19:44:19.614Z,5.07
2022-10-17T19:46:49.060Z,4.20
2022-10-17T19:49:17.070Z,5.10
2022-10-17T19:51:44.667Z,4.83
2022-10-17T19:54:12.785Z,6.53
2022-10-17T19:56:41.300Z,3.57
2022-10-17T19:59:13.248Z,3.97
2022-10-17T20:01:41.741Z,4.10
2022-10-17T20:04:11.006Z,4.17
2022-10-17T20:06:39.573Z,3.37
2022-10-17T20:09:09.912Z,3.03
2022-10-17T20:11:39.881Z,3.87
2022-10-17T20:14:07.255Z,3.30
2022-10-17T20:16:36.779Z,5.17
2022-10-17T20:19:08.597Z,3.97
2022-10-17T20:21:39.442Z,3.50
2022-10-17T20:24:11.310Z,3.03
2022-10-17T20:26:39.589Z,3.67
2022-10-17T20:29:11.631Z,6.27
2022-10-17T20:31:43.041Z,4.60
2022-10-17T20:34:14.065Z,3.90
2022-10-17T20:36:41.969Z,3.63
2022-10-17T20:39:12.192Z,4.03
2022-10-17T20:41:40.027Z,4.10
2022-10-17T20:44:07.913Z,3.80
2022-10-17T20:46:37.672Z,3.63
2022-10-17T20:49:13.533Z,3.80
2022-10-17T20:51:41.340Z,4.53
2022-10-17T20:54:08.947Z,3.30
2022-10-17T20:56:36.407Z,3.67
2022-10-17T20:59:07.189Z,3.47
2022-10-17T21:01:36.100Z,5.50
2022-10-17T21:04:33.360Z,3.83
2022-10-17T21:06:53.528Z,4.80
2022-10-17T21:09:21.836Z,4.47
2022-10-17T21:11:52.467Z,5.13
2022-10-17T21:14:19.977Z,4.13
2022-10-17T21:16:48.386Z,4.63
2022-10-17T21:19:16.656Z,5.17
2022-10-17T21:21:46.724Z,4.87
2022-10-17T21:24:18.116Z,4.90
2022-10-17T21:26:47.745Z,5.63
2022-10-17T21:29:15.097Z,5.33
2022-10-17T21:31:44.807Z,6.27
2022-10-17T21:34:14.982Z,6.33
2022-10-17T21:36:42.886Z,11.80
2022-10-17T21:39:11.133Z,6.87
2022-10-17T21:41:41.078Z,8.93
2022-10-17T21:44:14.328Z,9.17
2022-10-17T21:46:42.687Z,9.87
2022-10-17T21:49:12.882Z,9.60
2022-10-17T21:51:41.009Z,8.73
2022-10-17T21:54:08.865Z,8.47
2022-10-17T21:56:36.581Z,8.60
2022-10-17T21:59:05.916Z,9.70
2022-10-17T22:01:35.706Z,10.17
2022-10-17T22:04:05.985Z,9.53
2022-10-17T22:06:40.178Z,10.63
2022-10-17T22:09:13.239Z,9.17
2022-10-17T22:11:41.472Z,10.87
2022-10-17T22:14:15.165Z,9.73
2022-10-17T22:16:44.239Z,10.33
2022-10-17T22:19:14.326Z,10.70
2022-10-17T22:21:41.599Z,11.17
2022-10-17T22:24:12.920Z,12.30
2022-10-17T22:26:40.966Z,12.70
2022-10-17T22:29:09.954Z,12.70
2022-10-17T22:31:38.400Z,13.53
2022-10-17T22:34:07.156Z,12.47
2022-10-17T22:36:35.891Z,14.77
2022-10-17T22:39:04.339Z,11.63
2022-10-17T22:41:32.239Z,14.77
2022-10-17T22:44:00.142Z,15.70
2022-10-17T22:46:29.117Z,14.20
2022-10-17T22:48:56.447Z,14.97
2022-10-17T22:53:56.006Z,14.60
2022-10-17T22:56:23.618Z,14.13
2022-10-17T22:58:51.563Z,16.03
2022-10-17T23:01:22.526Z,17.07
2022-10-17T23:03:52.665Z,16.57
2022-10-17T23:06:21.280Z,16.47
2022-10-17T23:08:49.292Z,18.40
2022-10-17T23:11:17.085Z,17.50
2022-10-17T23:13:44.363Z,16.47
2022-10-17T23:16:11.727Z,17.37
2022-10-17T23:18:39.448Z,18.83
2022-10-17T23:21:08.785Z,17.97
2022-10-17T23:23:36.171Z,15.83
2022-10-17T23:26:05.658Z,18.67
2022-10-17T23:28:35.498Z,16.93
2022-10-17T23:31:11.256Z,17.77
2022-10-17T23:33:41.200Z,14.93
2022-10-17T23:36:11.927Z,18.73
2022-10-17T23:38:39.811Z,17.33
2022-10-17T23:41:07.815Z,19.80
2022-10-17T23:43:35.292Z,18.23
2022-10-17T23:46:03.854Z,17.73
2022-10-17T23:48:31.310Z,19.03
2022-10-17T23:50:58.736Z,20.03
2022-10-17T23:53:27.420Z,17.40
2022-10-17T23:55:54.654Z,16.43
2022-10-17T23:58:21.964Z,18.97
